createdAt,value
2019-03-16T00:02:07.490Z,8.33
2019-03-16T00:04:35.952Z,6.22
2019-03-16T00:07:04.692Z,5.47
2019-03-16T00:09:33.152Z,4.78
2019-03-16T00:12:01.789Z,6.37
2019-03-16T00:14:30.488Z,4.70
2019-03-16T00:16:58.984Z,6.58
2019-03-16T00:19:27.490Z,8.08
2019-03-16T00:21:55.983Z,7.90
2019-03-16T00:24:24.472Z,5.50
2019-03-16T00:26:52.936Z,7.83
2019-03-16T00:29:21.409Z,6.60
2019-03-16T00:31:49.877Z,8.15
2019-03-16T00:34:18.388Z,10.28
2019-03-16T00:36:46.883Z,10.05
2019-03-16T00:39:15.438Z,7.22
2019-03-16T00:41:43.940Z,7.87
2019-03-16T00:44:12.400Z,5.70
2019-03-16T00:46:40.889Z,4.90
2019-03-16T00:49:09.381Z,7.03
2019-03-16T00:51:37.872Z,4.47
2019-03-16T00:54:06.325Z,9.80
2019-03-16T00:56:34.800Z,7.15
2019-03-16T00:59:03.358Z,6.67
2019-03-16T01:01:31.826Z,5.12
2019-03-16T01:04:00.685Z,4.20
2019-03-16T01:06:29.152Z,4.50
2019-03-16T01:08:57.639Z,6.28
2019-03-16T01:11:26.098Z,4.92
2019-03-16T01:13:54.571Z,4.65
2019-03-16T01:16:23.066Z,4.45
2019-03-16T01:18:51.525Z,7.03
2019-03-16T01:21:20.023Z,5.37
2019-03-16T01:23:48.490Z,2.80
2019-03-16T01:26:16.978Z,4.20
2019-03-16T01:28:45.442Z,4.28
2019-03-16T01:31:13.935Z,2.10
2019-03-16T01:33:42.406Z,4.62
2019-03-16T01:36:12.380Z,3.60
2019-03-16T01:38:40.851Z,4.55
2019-03-16T01:41:09.319Z,4.35
2019-03-16T01:43:37.833Z,3.92
2019-03-16T01:46:06.332Z,5.83
2019-03-16T01:48:34.792Z,4.35
2019-03-16T01:51:03.272Z,10.00
2019-03-16T01:53:31.774Z,14.75
2019-03-16T01:56:00.232Z,6.08
2019-03-16T01:58:28.716Z,4.05
2019-03-16T02:00:57.217Z,6.47
2019-03-16T02:03:25.678Z,7.80
2019-03-16T02:05:54.174Z,7.30
2019-03-16T02:08:22.637Z,7.12
2019-03-16T02:10:51.280Z,7.10
2019-03-16T02:13:21.332Z,7.75
2019-03-16T02:15:49.801Z,6.58
2019-03-16T02:18:18.273Z,6.08
2019-03-16T02:20:46.740Z,6.92
2019-03-16T02:23:15.221Z,5.45
2019-03-16T02:25:43.684Z,6.37
2019-03-16T02:28:12.257Z,8.18
2019-03-16T02:30:40.721Z,7.65
2019-03-16T02:33:13.270Z,3.72
2019-03-16T02:35:39.395Z,3.87
2019-03-16T02:38:07.870Z,3.15
2019-03-16T02:40:36.329Z,4.62
2019-03-16T02:43:04.934Z,2.75
2019-03-16T02:45:33.360Z,3.12
2019-03-16T02:48:01.917Z,3.20
2019-03-16T02:50:30.417Z,3.25
2019-03-16T02:52:58.886Z,4.17
2019-03-16T02:55:27.368Z,5.12
2019-03-16T02:57:55.834Z,4.53
2019-03-16T03:00:24.312Z,3.50
2019-03-16T03:02:52.896Z,5.47
2019-03-16T03:05:21.571Z,3.95
2019-03-16T03:07:50.035Z,4.17
2019-03-16T03:10:18.499Z,4.58
2019-03-16T03:12:46.994Z,3.50
2019-03-16T03:15:15.522Z,2.60
2019-03-16T03:17:44.019Z,3.00
2019-03-16T03:20:12.674Z,1.77
2019-03-16T03:22:41.217Z,3.58
2019-03-16T03:25:09.754Z,4.20
2019-03-16T03:27:38.219Z,2.40
2019-03-16T03:30:09.957Z,2.45
2019-03-16T03:32:38.383Z,3.42
2019-03-16T03:35:08.722Z,11.57
2019-03-16T03:37:37.185Z,6.17
2019-03-16T03:40:11.085Z,10.53
2019-03-16T03:42:39.514Z,6.10
2019-03-16T03:45:10.715Z,10.75
2019-03-16T03:47:39.219Z,10.63
2019-03-16T03:50:10.464Z,8.80
2019-03-16T03:52:38.993Z,13.85
2019-03-16T03:55:11.216Z,4.60
2019-03-16T03:57:40.100Z,5.35
2019-03-16T04:00:19.573Z,1.72
2019-03-16T04:02:48.155Z,5.55
2019-03-16T04:05:16.741Z,1.87
2019-03-16T04:07:45.320Z,1.90
2019-03-16T04:10:14.549Z,2.80
2019-03-16T04:12:43.091Z,3.40
2019-03-16T04:15:12.985Z,6.17
2019-03-16T04:17:41.620Z,10.48
2019-03-16T04:20:14.113Z,7.87
2019-03-16T04:22:42.635Z,11.97
2019-03-16T04:25:11.194Z,8.08
2019-03-16T04:27:39.615Z,5.72
2019-03-16T04:30:10.370Z,3.92
2019-03-16T04:32:38.813Z,5.08
2019-03-16T04:35:07.654Z,4.85
2019-03-16T04:37:36.128Z,7.03
2019-03-16T04:40:06.859Z,6.40
2019-03-16T04:42:35.405Z,4.05
2019-03-16T04:45:04.536Z,4.75
2019-03-16T04:47:33.026Z,4.37
2019-03-16T04:50:01.495Z,4.00
2019-03-16T04:52:29.987Z,4.97
2019-03-16T04:54:58.453Z,5.05
2019-03-16T04:57:26.946Z,4.87
2019-03-16T04:59:55.414Z,5.00
2019-03-16T05:02:23.993Z,5.37
2019-03-16T05:04:52.476Z,7.53
2019-03-16T05:07:20.936Z,7.75
2019-03-16T05:09:49.425Z,9.28
2019-03-16T05:12:17.872Z,6.12
2019-03-16T05:14:46.382Z,8.90
2019-03-16T05:17:14.848Z,6.75
2019-03-16T05:19:43.366Z,6.92
2019-03-16T05:22:11.830Z,6.20
2019-03-16T05:24:40.296Z,8.30
2019-03-16T05:27:08.795Z,5.90
2019-03-16T05:29:37.278Z,10.60
2019-03-16T05:32:05.840Z,35.17
2019-03-16T05:34:34.298Z,7.33
2019-03-16T05:37:02.800Z,15.68
2019-03-16T05:39:31.277Z,9.18
2019-03-16T05:41:59.791Z,36.93
2019-03-16T05:44:28.260Z,8.55
2019-03-16T05:46:56.723Z,22.50
2019-03-16T05:49:25.226Z,6.33
2019-03-16T05:51:53.761Z,6.65
2019-03-16T05:54:22.314Z,18.75
2019-03-16T05:56:50.810Z,7.45
2019-03-16T05:59:19.274Z,4.90
2019-03-16T06:01:49.260Z,11.63
2019-03-16T06:04:17.760Z,22.15
2019-03-16T06:06:46.239Z,4.67
2019-03-16T06:09:14.728Z,14.53
2019-03-16T06:11:43.210Z,11.57
2019-03-16T06:14:11.680Z,10.38
2019-03-16T06:16:40.177Z,4.78
2019-03-16T06:19:08.648Z,8.55
2019-03-16T06:21:37.119Z,5.72
2019-03-16T06:24:05.692Z,5.12
2019-03-16T06:26:34.161Z,10.50
2019-03-16T06:29:02.689Z,34.10
2019-03-16T06:31:31.200Z,32.00
2019-03-16T06:33:59.690Z,8.70
2019-03-16T06:36:28.169Z,132.05
2019-03-16T06:38:56.720Z,13.28
2019-03-16T06:41:25.193Z,37.65
2019-03-16T06:43:55.264Z,84.95
2019-03-16T06:46:23.765Z,35.20
2019-03-16T06:48:52.260Z,19.95
2019-03-16T06:51:20.723Z,8.68
2019-03-16T06:53:49.198Z,9.55
2019-03-16T06:56:17.695Z,6.67
2019-03-16T06:58:46.168Z,8.80
2019-03-16T07:01:14.647Z,7.12
2019-03-16T07:03:43.112Z,8.20
2019-03-16T07:06:11.668Z,6.55
2019-03-16T07:08:40.157Z,10.45
2019-03-16T07:11:08.642Z,11.57
2019-03-16T07:13:38.476Z,15.75
2019-03-16T07:16:07.372Z,7.65
2019-03-16T07:18:35.744Z,6.35
2019-03-16T07:21:04.212Z,7.12
2019-03-16T07:23:32.751Z,27.82
2019-03-16T07:26:14.301Z,9.40
2019-03-16T07:28:31.716Z,9.60
2019-03-16T07:31:00.194Z,10.23
2019-03-16T07:33:28.738Z,8.88
2019-03-16T07:35:57.218Z,5.55
2019-03-16T07:38:25.691Z,5.03
2019-03-16T07:40:54.154Z,7.10
2019-03-16T07:43:22.751Z,8.60
2019-03-16T07:45:51.188Z,9.78
2019-03-16T07:48:19.655Z,7.62
2019-03-16T07:50:48.586Z,8.28
2019-03-16T07:53:17.051Z,9.08
2019-03-16T07:55:45.554Z,10.45
2019-03-16T07:58:14.156Z,7.65
2019-03-16T08:00:42.696Z,10.68
2019-03-16T08:03:11.144Z,7.10
2019-03-16T08:05:39.624Z,8.53
2019-03-16T08:08:10.418Z,10.50
2019-03-16T08:10:38.918Z,9.35
2019-03-16T08:13:07.501Z,8.13
2019-03-16T08:15:35.957Z,6.62
2019-03-16T08:18:07.672Z,7.50
2019-03-16T08:20:34.721Z,4.78
2019-03-16T08:23:03.188Z,23.47
2019-03-16T08:25:33.287Z,7.00
2019-03-16T08:28:02.010Z,9.95
2019-03-16T08:30:30.512Z,10.72
2019-03-16T08:32:58.973Z,6.60
2019-03-16T08:35:27.555Z,19.23
2019-03-16T08:37:56.052Z,10.63
2019-03-16T08:40:24.534Z,13.15
2019-03-16T08:42:53.021Z,45.78
2019-03-16T08:45:21.491Z,39.63
2019-03-16T08:47:49.964Z,21.25
2019-03-16T08:50:18.436Z,20.77
2019-03-16T08:52:46.920Z,17.85
2019-03-16T08:55:15.391Z,18.07
2019-03-16T08:57:43.867Z,15.50
2019-03-16T09:00:13.579Z,17.32
2019-03-16T09:02:42.161Z,21.55
2019-03-16T09:05:10.766Z,25.68
2019-03-16T09:07:39.246Z,9.05
2019-03-16T09:10:11.812Z,19.45
2019-03-16T09:12:40.326Z,25.65
2019-03-16T09:15:15.526Z,24.82
2019-03-16T09:17:44.039Z,54.63
2019-03-16T09:20:12.639Z,20.97
2019-03-16T09:22:41.113Z,15.48
2019-03-16T09:25:10.668Z,17.90
2019-03-16T09:27:39.207Z,12.03
2019-03-16T09:30:11.118Z,19.85
2019-03-16T09:35:07.507Z,19.77
2019-03-16T09:37:35.971Z,28.32
2019-03-16T09:40:06.112Z,22.85
2019-03-16T09:42:34.579Z,15.63
2019-03-16T09:45:03.120Z,8.60
2019-03-16T09:47:31.592Z,11.50
2019-03-16T09:50:00.059Z,13.00
2019-03-16T09:52:28.619Z,10.10
2019-03-16T09:54:57.090Z,13.62
2019-03-16T09:57:25.581Z,15.28
2019-03-16T09:59:54.080Z,10.98
2019-03-16T10:02:22.548Z,11.05
2019-03-16T10:04:51.026Z,12.80
2019-03-16T10:07:19.493Z,8.70
2019-03-16T10:09:48.022Z,9.90
2019-03-16T10:12:16.494Z,18.65
2019-03-16T10:14:44.984Z,13.78
2019-03-16T10:17:13.566Z,10.30
2019-03-16T10:19:42.035Z,12.50
2019-03-16T10:22:10.533Z,18.25
2019-03-16T10:24:39.099Z,11.57
2019-03-16T10:27:07.628Z,16.32
2019-03-16T10:29:36.073Z,17.57
2019-03-16T10:32:04.564Z,68.85
2019-03-16T10:34:33.068Z,14.00
2019-03-16T10:37:01.536Z,21.37
2019-03-16T10:39:30.017Z,18.12
2019-03-16T10:41:58.491Z,11.55
2019-03-16T10:44:26.963Z,12.28
2019-03-16T10:46:55.557Z,13.43
2019-03-16T10:49:24.000Z,29.02
2019-03-16T10:51:52.501Z,20.85
2019-03-16T10:54:20.979Z,17.90
2019-03-16T10:56:49.460Z,9.20
2019-03-16T10:59:18.038Z,9.85
2019-03-16T11:01:46.507Z,5.92
2019-03-16T11:04:15.038Z,17.60
2019-03-16T11:06:44.437Z,8.58
2019-03-16T11:09:13.023Z,9.00
2019-03-16T11:11:41.846Z,10.15
2019-03-16T11:14:10.960Z,9.95
2019-03-16T11:16:39.501Z,10.45
2019-03-16T11:19:08.019Z,19.75
2019-03-16T11:21:37.524Z,12.20
2019-03-16T11:24:06.075Z,12.68
2019-03-16T11:26:34.413Z,10.08
2019-03-16T11:29:09.024Z,14.63
2019-03-16T11:31:33.112Z,13.95
2019-03-16T11:34:01.614Z,17.35
2019-03-16T11:36:32.833Z,19.62
2019-03-16T11:39:01.333Z,8.90
2019-03-16T11:41:30.801Z,19.62
2019-03-16T11:43:59.285Z,18.70
2019-03-16T11:46:27.786Z,15.63
2019-03-16T11:48:58.667Z,5.58
2019-03-16T11:51:27.151Z,134.63
2019-03-16T11:53:55.636Z,345.70
2019-03-16T11:56:24.125Z,92.08
2019-03-16T11:58:52.614Z,323.35
2019-03-16T12:01:21.095Z,194.43
2019-03-16T12:03:49.600Z,34.25
2019-03-16T12:06:18.079Z,32.20
2019-03-16T12:08:46.579Z,9.43
2019-03-16T12:11:15.064Z,18.95
2019-03-16T12:13:44.042Z,16.48
2019-03-16T12:16:12.718Z,29.75
2019-03-16T12:18:41.226Z,29.67
2019-03-16T12:21:11.238Z,40.90
2019-03-16T12:23:39.847Z,22.00
2019-03-16T12:26:08.328Z,42.08
2019-03-16T12:28:36.836Z,31.45
2019-03-16T12:31:05.402Z,46.68
2019-03-16T12:33:33.872Z,54.77
2019-03-16T12:36:02.380Z,23.95
2019-03-16T12:38:30.848Z,17.87
2019-03-16T12:40:59.350Z,21.60
2019-03-16T12:43:27.897Z,24.90
2019-03-16T12:45:56.411Z,18.65
2019-03-16T12:48:24.890Z,18.32
2019-03-16T12:50:54.491Z,11.25
2019-03-16T12:53:23.021Z,13.60
2019-03-16T12:55:51.507Z,11.43
2019-03-16T12:58:19.982Z,14.93
2019-03-16T13:00:49.710Z,49.98
2019-03-16T13:03:18.178Z,44.95
2019-03-16T13:05:46.686Z,90.38
2019-03-16T13:08:15.168Z,131.27
2019-03-16T13:10:44.258Z,89.87
2019-03-16T13:13:12.759Z,37.73
2019-03-16T13:15:41.826Z,512.33
2019-03-16T13:18:10.335Z,85.70
2019-03-16T13:20:38.842Z,66.02
2019-03-16T13:23:08.673Z,61.98
2019-03-16T13:25:37.132Z,82.78
2019-03-16T13:28:05.714Z,32.50
2019-03-16T13:30:43.401Z,34.48
2019-03-16T13:33:12.296Z,42.90
2019-03-16T13:35:40.776Z,17.52
2019-03-16T13:38:09.283Z,22.85
2019-03-16T13:40:38.326Z,26.50
2019-03-16T13:43:06.832Z,29.77
2019-03-16T13:45:35.816Z,81.82
2019-03-16T13:48:04.302Z,57.25
2019-03-16T13:50:32.783Z,41.05
2019-03-16T13:53:01.655Z,22.25
2019-03-16T13:55:30.143Z,30.57
2019-03-16T13:58:00.214Z,40.05
2019-03-16T14:00:28.834Z,52.25
2019-03-16T14:02:57.258Z,32.17
2019-03-16T14:05:25.859Z,28.15
2019-03-16T14:07:54.332Z,36.28
2019-03-16T14:10:33.547Z,36.70
2019-03-16T14:13:02.987Z,46.55
2019-03-16T14:15:31.605Z,48.30
2019-03-16T14:18:00.086Z,29.40
2019-03-16T14:20:30.203Z,33.88
2019-03-16T14:22:59.051Z,38.98
2019-03-16T14:25:27.553Z,44.67
2019-03-16T14:27:56.021Z,42.25
2019-03-16T14:30:39.871Z,58.02
2019-03-16T14:32:54.709Z,20.12
2019-03-16T14:35:23.212Z,32.80
2019-03-16T14:37:51.699Z,16.17
2019-03-16T14:40:20.313Z,30.32
2019-03-16T14:42:48.787Z,26.62
2019-03-16T14:45:17.712Z,18.12
2019-03-16T14:47:46.262Z,24.35
2019-03-16T14:50:25.290Z,21.40
2019-03-16T14:52:53.793Z,32.73
2019-03-16T14:55:22.272Z,14.13
2019-03-16T14:57:50.778Z,21.73
2019-03-16T15:00:19.802Z,25.50
2019-03-16T15:02:48.657Z,27.82
2019-03-16T15:05:17.179Z,28.42
2019-03-16T15:07:45.649Z,16.35
2019-03-16T15:10:17.576Z,23.00
2019-03-16T15:15:18.211Z,18.52
2019-03-16T15:17:46.697Z,30.32
2019-03-16T15:20:15.244Z,26.70
2019-03-16T15:22:43.806Z,32.63
2019-03-16T15:25:13.119Z,28.17
2019-03-16T15:27:41.700Z,31.50
2019-03-16T15:30:20.735Z,26.25
2019-03-16T15:32:49.364Z,21.68
2019-03-16T15:35:17.854Z,53.42
2019-03-16T15:37:46.885Z,39.25
2019-03-16T15:40:16.139Z,28.65
2019-03-16T15:42:44.613Z,50.23
2019-03-16T15:45:33.072Z,123.10
2019-03-16T15:48:01.678Z,35.80
2019-03-16T15:50:30.266Z,78.65
2019-03-16T15:52:58.736Z,36.50
2019-03-16T15:55:27.232Z,32.70
2019-03-16T15:58:07.343Z,47.98
2019-03-16T16:00:27.254Z,60.00
2019-03-16T16:02:55.728Z,66.97
2019-03-16T16:05:24.289Z,18.30
2019-03-16T16:07:52.786Z,19.67
2019-03-16T16:10:21.320Z,20.68
2019-03-16T16:12:49.821Z,23.38
2019-03-16T16:15:18.437Z,21.75
2019-03-16T16:17:46.915Z,19.10
2019-03-16T16:20:16.622Z,18.30
2019-03-16T16:22:45.155Z,15.08
2019-03-16T16:25:14.567Z,23.90
2019-03-16T16:27:44.681Z,16.80
2019-03-16T16:30:19.230Z,28.05
2019-03-16T16:32:47.976Z,72.15
2019-03-16T16:35:17.140Z,28.75
2019-03-16T16:37:45.673Z,23.55
2019-03-16T16:40:20.540Z,47.48
2019-03-16T16:42:51.794Z,21.42
2019-03-16T16:45:20.325Z,36.17
2019-03-16T16:47:48.803Z,42.40
2019-03-16T16:50:24.481Z,62.17
2019-03-16T16:52:53.301Z,51.48
2019-03-16T16:55:21.837Z,54.67
2019-03-16T16:57:51.862Z,68.75
2019-03-16T17:00:22.086Z,43.55
2019-03-16T17:02:50.559Z,48.48
2019-03-16T17:05:19.137Z,41.25
2019-03-16T17:07:47.604Z,47.62
2019-03-16T17:10:16.625Z,29.82
2019-03-16T17:12:45.460Z,22.90
2019-03-16T17:15:18.323Z,37.08
2019-03-16T17:17:46.880Z,18.85
2019-03-16T17:20:16.020Z,30.88
2019-03-16T17:22:44.590Z,28.15
2019-03-16T17:25:14.158Z,18.95
2019-03-16T17:27:42.760Z,20.15
2019-03-16T17:30:20.134Z,22.87
2019-03-16T17:32:48.636Z,24.75
2019-03-16T17:35:17.273Z,35.08
2019-03-16T17:37:45.788Z,29.87
2019-03-16T17:40:17.397Z,33.83
2019-03-16T17:42:45.945Z,43.63
2019-03-16T17:45:15.860Z,37.53
2019-03-16T17:47:46.100Z,39.95
2019-03-16T17:50:15.516Z,38.67
2019-03-16T17:52:44.056Z,46.50
2019-03-16T17:55:19.394Z,34.75
2019-03-16T17:57:47.953Z,31.55
2019-03-16T18:00:17.987Z,31.23
2019-03-16T18:02:51.869Z,37.10
2019-03-16T18:05:16.729Z,40.70
2019-03-16T18:07:45.280Z,53.73
2019-03-16T18:10:14.709Z,51.02
2019-03-16T18:12:43.252Z,44.00
2019-03-16T18:15:14.802Z,66.25
2019-03-16T18:17:43.274Z,51.18
2019-03-16T18:20:19.202Z,80.42
2019-03-16T18:22:49.223Z,90.38
2019-03-16T18:25:18.005Z,145.65
2019-03-16T18:27:49.113Z,275.43
2019-03-16T18:30:19.027Z,102.80
2019-03-16T18:32:47.513Z,131.52
2019-03-16T18:35:16.122Z,103.00
2019-03-16T18:37:44.583Z,212.17
2019-03-16T18:40:13.999Z,150.27
2019-03-16T18:42:42.502Z,149.40
2019-03-16T18:45:13.417Z,132.00
2019-03-16T18:47:42.010Z,108.03
2019-03-16T18:50:11.981Z,161.50
2019-03-16T18:52:42.000Z,146.22
2019-03-16T18:55:13.146Z,130.45
2019-03-16T18:57:44.368Z,74.07
2019-03-16T19:00:16.529Z,200.65
2019-03-16T19:02:46.217Z,170.72
2019-03-16T19:05:14.924Z,131.35
2019-03-16T19:07:43.497Z,79.42
2019-03-16T19:10:16.934Z,96.63
2019-03-16T19:12:45.906Z,81.70
2019-03-16T19:15:18.000Z,77.87
2019-03-16T19:17:58.064Z,59.95
2019-03-16T19:20:17.609Z,54.55
2019-03-16T19:22:47.005Z,48.95
2019-03-16T19:25:20.176Z,45.50
2019-03-16T19:27:48.718Z,50.55
2019-03-16T19:30:18.279Z,42.33
2019-03-16T19:32:49.425Z,39.40
2019-03-16T19:35:17.911Z,216.60
2019-03-16T19:37:47.405Z,110.60
2019-03-16T19:40:19.944Z,48.00
2019-03-16T19:42:48.641Z,40.38
2019-03-16T19:45:20.285Z,50.23
2019-03-16T19:47:51.910Z,58.90
2019-03-16T19:50:22.364Z,95.57
2019-03-16T19:52:50.841Z,78.25
2019-03-16T19:55:19.601Z,66.47
2019-03-16T19:57:48.873Z,79.20
2019-03-16T20:00:18.657Z,74.70
2019-03-16T20:02:51.281Z,64.70
2019-03-16T20:05:20.339Z,120.13
2019-03-16T20:07:49.065Z,93.72
2019-03-16T20:10:18.725Z,93.25
2019-03-16T20:12:47.363Z,119.65
2019-03-16T20:15:16.364Z,126.00
2019-03-16T20:17:45.036Z,96.90
2019-03-16T20:20:14.710Z,64.05
2019-03-16T20:22:44.088Z,92.02
2019-03-16T20:25:14.861Z,109.67
2019-03-16T20:27:43.431Z,81.72
2019-03-16T20:30:25.825Z,69.22
2019-03-16T20:32:50.367Z,45.03
2019-03-16T20:35:16.919Z,73.60
2019-03-16T20:37:46.344Z,71.82
2019-03-16T20:40:17.070Z,64.82
2019-03-16T20:42:45.540Z,61.73
2019-03-16T20:45:15.928Z,73.45
2019-03-16T20:47:44.546Z,65.62
2019-03-16T20:50:15.023Z,53.35
2019-03-16T20:52:44.431Z,70.15
2019-03-16T20:55:13.245Z,60.67
2019-03-16T20:57:41.804Z,77.12
2019-03-16T21:00:18.129Z,59.40
2019-03-16T21:02:48.289Z,62.93
2019-03-16T21:05:16.813Z,82.08
2019-03-16T21:07:45.295Z,80.72
2019-03-16T21:10:14.355Z,63.15
2019-03-16T21:12:42.905Z,109.70
2019-03-16T21:15:16.604Z,78.20
2019-03-16T21:17:45.087Z,85.97
2019-03-16T21:20:14.949Z,74.62
2019-03-16T21:22:43.725Z,62.20
2019-03-16T21:25:13.871Z,72.03
2019-03-16T21:27:42.489Z,77.00
2019-03-16T21:30:13.723Z,66.28
2019-03-16T21:32:42.198Z,74.40
2019-03-16T21:35:10.937Z,78.50
2019-03-16T21:37:39.452Z,76.40
2019-03-16T21:40:10.504Z,67.32
2019-03-16T21:42:39.039Z,57.80
2019-03-16T21:45:11.850Z,55.38
2019-03-16T21:47:41.982Z,70.57
2019-03-16T21:50:12.222Z,87.00
2019-03-16T21:52:40.731Z,84.47
2019-03-16T21:55:10.788Z,70.62
2019-03-16T21:57:39.251Z,63.68
2019-03-16T22:00:12.759Z,62.88
2019-03-16T22:02:41.297Z,65.90
2019-03-16T22:05:10.404Z,82.45
2019-03-16T22:07:38.949Z,67.15
2019-03-16T22:10:09.918Z,57.00
2019-03-16T22:12:38.390Z,87.43
2019-03-16T22:15:10.884Z,63.45
2019-03-16T22:17:39.438Z,159.05
2019-03-16T22:20:11.191Z,102.72
2019-03-16T22:22:39.829Z,75.40
2019-03-16T22:25:09.467Z,79.60
2019-03-16T22:27:37.974Z,101.07
2019-03-16T22:30:09.052Z,57.78
2019-03-16T22:32:37.538Z,116.90
2019-03-16T22:35:09.113Z,65.40
2019-03-16T22:37:37.171Z,45.30
2019-03-16T22:40:11.843Z,71.57
2019-03-16T22:42:40.353Z,52.90
2019-03-16T22:45:13.239Z,50.60
2019-03-16T22:47:41.872Z,63.25
2019-03-16T22:50:14.375Z,54.67
2019-03-16T22:52:42.851Z,47.05
2019-03-16T22:55:11.506Z,58.28
2019-03-16T22:57:39.977Z,65.95
2019-03-16T23:00:11.694Z,83.95
2019-03-16T23:02:40.305Z,64.75
2019-03-16T23:05:11.309Z,66.02
2019-03-16T23:07:39.815Z,42.03
2019-03-16T23:10:10.425Z,48.28
2019-03-16T23:12:38.992Z,43.30
2019-03-16T23:15:12.159Z,43.42
2019-03-16T23:17:40.691Z,42.53
2019-03-16T23:20:10.229Z,46.55
2019-03-16T23:22:38.766Z,47.45
2019-03-16T23:25:08.969Z,38.00
2019-03-16T23:27:37.459Z,45.92
2019-03-16T23:30:08.271Z,44.20
2019-03-16T23:32:36.753Z,75.92
2019-03-16T23:35:06.965Z,53.73
2019-03-16T23:37:35.517Z,57.20
2019-03-16T23:40:10.279Z,46.10
2019-03-16T23:42:38.761Z,79.12
2019-03-16T23:45:09.508Z,54.53
2019-03-16T23:47:38.013Z,50.63
2019-03-16T23:50:11.682Z,41.37
2019-03-16T23:52:40.168Z,41.23
2019-03-16T23:55:09.792Z,38.30
2019-03-16T23:57:38.370Z,43.73
